Terminal Aerodrome Forecast
Issued by NWS

Home | Current Version | Previous Version | Text Only | Print | Product List | Glossary On
Versions: 1 2 3 4 5 6 7 8 9 10 11 12 13 14 15 16
092
FTUS44 KLIX 230525
TAFMCB
TAF
KMCB 230525Z 2306/2406 30015KT P6SM OVC010
      TEMPO 2306/2308 5SM BR
     FM231300 32011KT P6SM BKN025
     FM231600 32012KT P6SM BKN040
     FM231700 32011KT P6SM SCT045
     FM232200 31009KT P6SM FEW150
     FM240000 31004KT P6SM FEW250=

USA.gov is the U.S. government's official web portal to all federal, state and local government web resources and services.